Littleton, CO (80120)

7:00 PM MST on November 26, 2014 (GMT -0700)
Arapahoe Community College | Change Station
CLOSE
Current Station
Personal Weather Station
Location: Littleton, CO
Elevation: 5371 ft
Nearby Weather Stations

Elev 5371 ft 39.61 °N, 105.02 °W | Updated 2 minutes ago

Partly Cloudy
Partly Cloudy
32.5 °F
Feels Like 32 °F
N
0.0
Wind Variable Wind from WNW
Gusts 0.0 mph

Today
High -- | Low -- °F
--% Chance of Precip.
Yesterday
High -- | Low -- °F
Precip. -- in
6:56 AM 4:38 PM
Waxing Crescent, 24% visible
Pressure 30.32 in
Visibility 10.0 miles
Clouds Few 14000 ft
Windchill 32 °F
Dew Point 24 °F
Humidity 72%
Rainfall -999.00 in
Snow Depth Not available.
UV 0 out of 12
Pollen .10 out of 12
Air Quality Not available.
Flu Activity Not available.
METAR KAPA 270153Z 25004KT 10SM FEW140 02/M04 A3023 RMK AO2 SLP266 T00171039

More Conditions Fewer Conditions

Pressure 30.32 in
Visibility 10.0 miles
Clouds Few 14000 ft
Windchill 32 °F
Dew Point 24 °F
Humidity 72%
Rainfall -999.00 in
Snow Depth Not available.
UV 0 out of 12
Pollen .10 out of 12
Air Quality Not available.
Flu Activity Not available.
METAR KAPA 270153Z 25004KT 10SM FEW140 02/M04 A3023 RMK AO2 SLP266 T00171039

More Conditions Fewer Conditions

10-Day Weather Forecast

Almanac

Astronomy

Nov. 26, 2014 Rise Set
Actual Time
Civil Twilight
Nautical Twilight
Astronomical Twilight
Moon
Length of Visible Light
Length of Day
Tomorrow will be .
, % of the Moon is Illuminated

Today's Extremes

State Highs State Lows

Community

WunderPhotos

Upload Photos

1,773,942 photos uploaded!

WunderBlogs® & News

Nearby

Air Quality

  Air Quality AQ Index Pollutant
Not available.

Snow Depth

Station Depth Elevation

Earthquake Activity

City Distance Mag. Time & Date
Minimum magnitude displayed is 2.5.

Coastal Water Temperatures

Place Temperature

Nearby Weather Stations